Flight Track Log - Related Links

Times and Time Zones

All times are in EDT time to prevent confusion due to time zone crossing. See the UCA4838 flight status page for this flight to view local times or setup timezone preferences in your user account.

Time Position Orientation Groundspeed Altitude Reporting Facility
EDT Latitude Longitude Course Direction KTS MPH feet Rate Location/Type
Mon 12:49:17 PM 42.7297 -73.8081 192° South 132 152 1,100  Level Boston Center
Mon 12:49:59 PM 42.7025 -73.8161 192° South 145 167 2,000 1,361 Climbing Boston Center
Mon 12:50:54 PM 42.6689 -73.8436 211° Southwest 173 199 3,300 1,252 Climbing Boston Center
Mon 12:51:54 PM 42.6247 -73.8792 211° Southwest 186 214 4,400 1,200 Climbing Boston Center
Mon 12:52:49 PM 42.5806 -73.9147 211° Southwest 194 223 5,600 1,313 Climbing Boston Center
Mon 12:54:02 PM 42.5236 -73.9558 208° Southwest 189 217 7,200 1,172 Climbing Boston Center
Mon 12:54:57 PM 42.4856 -73.9914 215° Southwest 196 226 8,100 1,148 Climbing Boston Center
Mon 12:55:57 PM 42.4308 -74.0322 209° Southwest 208 239 9,400 1,096 Climbing Boston Center
Mon 12:56:41 PM 42.3972 -74.0567 208° Southwest 231 266 10,000 346 Climbing Boston Center
Mon 12:57:41 PM 42.3467 -74.0947 209° Southwest 237 273 10,000  Level Boston Center
Mon 12:58:42 PM 42.2814 -74.1461 210° Southwest 243 280 10,000  Level Boston Center
Mon 12:59:41 PM 42.2222 -74.1950 211° Southwest 253 291 10,000 -267 Level Boston Center
Mon 01:01:42 PM 42.0914 -74.2867 207° Southwest 268 308 9,200 -464 Descending Boston Center
Mon 01:02:42 PM 42.0261 -74.3350 209° Southwest 273 314 8,600 -605 Descending Boston Center
Mon 01:03:41 PM 41.9564 -74.3858 208° Southwest 278 320 8,000 -300 Descending Boston Center
Mon 01:04:42 PM 41.8911 -74.4314 207° Southwest 278 320 8,000  Level Boston Center
Mon 01:05:42 PM 41.8275 -74.4794 209° Southwest 272 313 8,000  Level Boston Center
Mon 01:06:41 PM 41.7728 -74.5194 209° Southwest 272 313 8,000  Level Boston Center
Mon 01:07:41 PM 41.6953 -74.5364 189° South 262 302 8,000 -347 Level Boston Center
Mon 01:08:42 PM 41.6283 -74.5508 189° South 262 302 7,300 -942 Descending Boston Center
Mon 01:09:42 PM 41.5467 -74.5675 189° South 268 308 6,100 -655 Descending Boston Center
Mon 01:10:41 PM 41.4819 -74.5792 188° South 274 315 6,000 -38 Descending Boston Center
Mon 01:12:19 PM 41.3667 -74.6167 194° South 255 293 6,000 -152 Level New York TRACON
Mon 01:13:19 PM 41.3000 -74.6333 191° South 248 285 5,600 -500 Descending New York TRACON
Mon 01:14:19 PM 41.2333 -74.6167 169° South 242 278 5,000 -300 Descending New York TRACON
Mon 01:15:19 PM 41.1667 -74.5667 151° Southeast 239 275 5,000  Level New York TRACON
Mon 01:16:19 PM 41.1167 -74.5000 135° Southeast 248 285 5,000  Level New York TRACON
Mon 01:17:19 PM 41.0833 -74.4333 124° Southeast 255 293 5,000  Level New York TRACON
Mon 01:18:19 PM 41.0333 -74.3667 135° Southeast 251 289 5,000  Level New York TRACON
Mon 01:19:19 PM 40.9833 -74.2833 128° Southeast 233 268 5,000 -50 Level New York TRACON
Mon 01:20:19 PM 40.9500 -74.2333 131° Southeast 209 241 4,900 -500 Descending New York TRACON
Mon 01:21:19 PM 40.9333 -74.1500 105° East 205 236 4,000 -600 Descending New York TRACON
Mon 01:22:19 PM 40.9333 -74.0833 90° East 197 227 3,700 -500 Descending New York TRACON
Mon 01:23:19 PM 40.9000 -74.0333 131° Southeast 201 231 3,000 -368 Descending New York TRACON
Mon 01:24:13 PM 40.8667 -74.0500 201° Southwest 179 206 3,000 -211 Level New York TRACON
Mon 01:25:13 PM 40.8167 -74.0833 207° Southwest 182 209 2,600 -700 Descending New York TRACON
Mon 01:26:13 PM 40.7667 -74.1167 207° Southwest 179 206 1,600 -950 Descending New York TRACON
Mon 01:27:13 PM 40.7333 -74.1333 201° Southwest 147 169 700 -900 Descending New York TRACON
Mon 01:29:00 PM 40.6833 -74.1667 210° Southwest  Level FlightAware Approximate

Login

Don't have an account? Register now (free) for customized features, flight alerts, and more!